createdAt,value
2018-06-24T00:02:36.624Z,49.48
2018-06-24T00:06:01.458Z,50.00
2018-06-24T00:09:26.406Z,49.51
2018-06-24T00:12:51.609Z,49.50
2018-06-24T00:16:16.554Z,49.98
2018-06-24T00:19:41.134Z,50.05
2018-06-24T00:23:06.132Z,50.85
2018-06-24T00:26:31.030Z,52.02
2018-06-24T00:29:55.976Z,51.94
2018-06-24T00:33:21.097Z,53.14
2018-06-24T00:36:46.143Z,53.45
2018-06-24T00:40:10.922Z,53.60
2018-06-24T00:43:35.906Z,53.87
2018-06-24T00:47:00.664Z,54.26
2018-06-24T00:50:25.488Z,54.24
2018-06-24T00:53:50.240Z,55.07
2018-06-24T00:57:15.122Z,54.24
2018-06-24T01:00:39.976Z,55.47
2018-06-24T01:04:04.888Z,55.32
2018-06-24T01:07:29.656Z,54.90
2018-06-24T01:10:54.514Z,54.92
2018-06-24T01:14:19.230Z,55.84
2018-06-24T01:17:44.091Z,55.45
2018-06-24T01:21:08.919Z,55.73
2018-06-24T01:24:34.493Z,55.05
2018-06-24T01:27:59.907Z,56.00
2018-06-24T01:31:24.803Z,56.05
2018-06-24T01:34:49.549Z,56.14
2018-06-24T01:38:14.470Z,56.53
2018-06-24T01:41:39.235Z,56.62
2018-06-24T01:45:04.038Z,56.88
2018-06-24T01:48:28.957Z,56.76
2018-06-24T01:51:54.886Z,57.76
2018-06-24T01:55:19.925Z,56.85
2018-06-24T01:58:44.666Z,56.30
2018-06-24T02:02:09.536Z,56.96
2018-06-24T02:05:34.176Z,57.89
2018-06-24T02:08:58.851Z,57.62
2018-06-24T02:12:23.538Z,58.28
2018-06-24T02:15:48.562Z,58.00
2018-06-24T02:19:13.754Z,58.74
2018-06-24T02:22:38.497Z,58.71
2018-06-24T02:26:03.177Z,58.39
2018-06-24T02:29:27.907Z,58.91
2018-06-24T02:32:52.564Z,59.42
2018-06-24T02:36:17.260Z,59.11
2018-06-24T02:39:42.993Z,59.76
2018-06-24T02:43:07.738Z,59.48
2018-06-24T02:46:32.436Z,60.52
2018-06-24T02:49:57.089Z,60.15
2018-06-24T02:53:21.780Z,60.82
2018-06-24T02:56:46.612Z,61.30
2018-06-24T03:00:11.421Z,61.00
2018-06-24T03:03:36.224Z,61.36
2018-06-24T03:07:01.002Z,62.23
2018-06-24T03:10:25.722Z,62.23
2018-06-24T03:13:50.102Z,62.58
2018-06-24T03:17:14.904Z,61.64
2018-06-24T03:20:39.602Z,61.81
2018-06-24T03:24:03.984Z,62.53
2018-06-24T03:27:28.686Z,62.15
2018-06-24T03:30:53.454Z,63.02
2018-06-24T03:34:18.114Z,63.03
2018-06-24T03:37:42.791Z,63.04
2018-06-24T03:41:07.836Z,62.28
2018-06-24T03:44:32.543Z,63.35
2018-06-24T03:47:57.254Z,62.71
2018-06-24T03:51:21.647Z,63.96
2018-06-24T03:54:46.573Z,62.70
2018-06-24T03:58:11.429Z,63.25
2018-06-24T04:01:36.190Z,63.69
2018-06-24T04:05:01.174Z,63.58
2018-06-24T04:08:26.152Z,63.05
2018-06-24T04:11:50.642Z,63.12
2018-06-24T04:15:15.399Z,63.10
2018-06-24T04:18:43.229Z,63.35
2018-06-24T04:22:07.994Z,63.30
2018-06-24T04:25:32.729Z,63.85
2018-06-24T04:28:57.492Z,62.28
2018-06-24T04:32:22.241Z,62.61
2018-06-24T04:35:47.010Z,63.20
2018-06-24T04:39:12.027Z,61.97
2018-06-24T04:42:37.992Z,62.41
2018-06-24T04:46:02.495Z,62.38
2018-06-24T04:49:27.305Z,62.32
2018-06-24T04:52:52.004Z,61.93
2018-06-24T04:56:16.729Z,62.58
2018-06-24T04:59:41.446Z,62.47
2018-06-24T05:03:06.450Z,61.49
2018-06-24T05:06:31.373Z,60.98
2018-06-24T05:09:56.800Z,60.48
2018-06-24T05:13:21.622Z,62.07
2018-06-24T05:16:46.549Z,60.69
2018-06-24T05:20:11.440Z,59.72
2018-06-24T05:23:36.428Z,60.95
2018-06-24T05:27:01.404Z,59.90
2018-06-24T05:30:26.102Z,60.21
2018-06-24T05:33:50.879Z,58.76
2018-06-24T05:37:15.772Z,59.25
2018-06-24T05:40:40.782Z,58.89
2018-06-24T05:44:06.027Z,58.68
2018-06-24T05:47:30.929Z,59.97
2018-06-24T05:50:55.331Z,58.46
2018-06-24T05:54:20.047Z,59.33
2018-06-24T05:57:44.776Z,59.24
2018-06-24T06:01:09.548Z,58.61
2018-06-24T06:04:34.284Z,58.17
2018-06-24T06:07:58.926Z,58.12
2018-06-24T06:11:23.593Z,57.56
2018-06-24T06:14:48.584Z,57.38
2018-06-24T06:18:13.540Z,58.85
2018-06-24T06:21:38.454Z,58.24
2018-06-24T06:25:03.282Z,58.41
2018-06-24T06:28:28.148Z,58.11
2018-06-24T06:31:52.973Z,57.71
2018-06-24T06:35:17.733Z,58.00
2018-06-24T06:38:42.821Z,56.97
2018-06-24T06:42:07.790Z,56.62
2018-06-24T06:45:32.871Z,55.91
2018-06-24T06:48:57.707Z,56.04
2018-06-24T06:52:22.764Z,56.44
2018-06-24T06:55:47.697Z,57.33
2018-06-24T06:59:14.315Z,56.77
2018-06-24T07:02:40.055Z,56.14
2018-06-24T07:06:06.637Z,55.03
2018-06-24T07:09:31.986Z,54.50
2018-06-24T07:13:03.079Z,53.98
2018-06-24T07:16:29.720Z,52.94
2018-06-24T07:19:54.666Z,53.23
2018-06-24T07:23:19.560Z,53.61
2018-06-24T07:26:44.358Z,53.46
2018-06-24T07:30:09.808Z,54.20
2018-06-24T07:33:35.500Z,53.79
2018-06-24T07:37:00.540Z,51.38
2018-06-24T07:40:26.679Z,52.41
2018-06-24T07:43:51.582Z,50.28
2018-06-24T07:47:16.374Z,50.95
2018-06-24T07:50:41.968Z,51.29
2018-06-24T07:54:06.948Z,49.47
2018-06-24T07:57:31.978Z,51.95
2018-06-24T08:00:58.211Z,51.10
2018-06-24T08:04:24.451Z,50.81
2018-06-24T08:07:49.335Z,50.96
2018-06-24T08:11:14.096Z,50.55
2018-06-24T08:14:38.884Z,50.78
2018-06-24T08:18:04.584Z,48.99
2018-06-24T08:21:29.446Z,49.63
2018-06-24T08:24:54.296Z,49.95
2018-06-24T08:28:19.145Z,49.41
2018-06-24T08:31:44.204Z,49.73
2018-06-24T08:35:08.538Z,48.52
2018-06-24T08:38:33.488Z,47.85
2018-06-24T08:41:58.460Z,48.69
2018-06-24T08:45:24.118Z,50.16
2018-06-24T08:48:48.946Z,48.19
2018-06-24T08:52:14.194Z,48.07
2018-06-24T08:55:39.011Z,47.69
2018-06-24T08:59:03.884Z,47.00
2018-06-24T09:02:28.920Z,48.57
2018-06-24T09:05:53.766Z,48.57
2018-06-24T09:09:18.552Z,49.81
2018-06-24T09:12:43.383Z,46.72
2018-06-24T09:16:08.408Z,47.41
2018-06-24T09:19:32.884Z,49.21
2018-06-24T09:22:57.758Z,49.13
2018-06-24T09:26:22.717Z,48.88
2018-06-24T09:29:47.555Z,47.27
2018-06-24T09:33:12.369Z,48.97
2018-06-24T09:36:37.093Z,47.93
2018-06-24T09:40:01.867Z,46.35
2018-06-24T09:43:26.948Z,46.10
2018-06-24T09:46:51.881Z,45.52
2018-06-24T09:50:16.617Z,44.01
2018-06-24T09:53:41.385Z,44.70
2018-06-24T09:57:05.827Z,42.90
2018-06-24T10:00:30.525Z,43.72
2018-06-24T10:03:55.797Z,44.02
2018-06-24T10:07:20.486Z,45.79
2018-06-24T10:10:45.161Z,45.17
2018-06-24T10:14:09.891Z,46.49
2018-06-24T10:17:36.001Z,45.14
2018-06-24T10:21:01.954Z,45.42
2018-06-24T10:24:26.862Z,44.74
2018-06-24T10:27:54.583Z,43.67
2018-06-24T10:31:19.677Z,44.02
2018-06-24T10:34:44.691Z,44.37
2018-06-24T10:38:09.481Z,42.01
2018-06-24T10:41:34.334Z,43.33
2018-06-24T10:44:59.081Z,42.48
2018-06-24T10:48:23.805Z,43.42
2018-06-24T10:51:48.538Z,43.33
2018-06-24T10:55:13.328Z,42.82
2018-06-24T10:58:37.986Z,43.35
2018-06-24T11:02:02.776Z,42.61
2018-06-24T11:05:27.725Z,43.35
2018-06-24T11:08:52.755Z,42.87
2018-06-24T11:12:17.298Z,41.88
2018-06-24T11:15:42.145Z,41.74
2018-06-24T11:19:06.951Z,41.19
2018-06-24T11:22:31.821Z,39.71
2018-06-24T11:25:56.685Z,41.22
2018-06-24T11:29:24.520Z,41.30
2018-06-24T11:32:49.638Z,41.73
2018-06-24T11:36:14.420Z,40.77
2018-06-24T11:39:39.188Z,39.99
2018-06-24T11:43:04.023Z,42.61
2018-06-24T11:46:28.868Z,40.46
2018-06-24T11:49:53.742Z,41.75
2018-06-24T11:53:18.637Z,40.44
2018-06-24T11:56:43.395Z,39.52
2018-06-24T12:00:08.310Z,41.26
2018-06-24T12:03:32.680Z,39.86
2018-06-24T12:06:57.568Z,39.86
2018-06-24T12:10:22.322Z,41.05
2018-06-24T12:13:47.101Z,40.64
2018-06-24T12:17:12.863Z,40.19
2018-06-24T12:20:37.825Z,39.45
2018-06-24T12:24:02.556Z,40.90
2018-06-24T12:27:27.289Z,40.22
2018-06-24T12:30:53.195Z,39.45
2018-06-24T12:38:48.792Z,40.16
2018-06-24T12:42:13.497Z,38.60
2018-06-24T12:45:38.264Z,40.01
2018-06-24T12:49:03.089Z,37.82
2018-06-24T12:52:27.769Z,38.34
2018-06-24T12:55:52.476Z,39.99
2018-06-24T12:59:17.101Z,38.08
2018-06-24T13:02:41.739Z,38.31
2018-06-24T13:06:06.515Z,38.42
2018-06-24T13:09:31.329Z,36.23
2018-06-24T13:12:56.038Z,36.64
2018-06-24T13:16:20.765Z,38.27
2018-06-24T13:19:45.642Z,36.79
2018-06-24T13:23:10.292Z,37.77
2018-06-24T13:26:34.686Z,37.67
2018-06-24T13:29:59.362Z,37.03
2018-06-24T13:33:24.266Z,36.99
2018-06-24T13:36:50.074Z,37.66
2018-06-24T13:40:15.700Z,37.27
2018-06-24T13:43:40.527Z,37.91
2018-06-24T13:47:05.326Z,38.04
2018-06-24T13:50:30.221Z,37.33
2018-06-24T13:53:55.021Z,35.29
2018-06-24T13:57:19.763Z,35.71
2018-06-24T14:00:44.587Z,35.38
2018-06-24T14:04:09.433Z,36.06
2018-06-24T14:07:34.218Z,34.09
2018-06-24T14:10:59.024Z,35.63
2018-06-24T14:14:23.762Z,37.60
2018-06-24T14:17:48.643Z,36.51
2018-06-24T14:21:13.454Z,34.12
2018-06-24T14:24:38.430Z,35.56
2018-06-24T14:28:03.351Z,34.06
2018-06-24T14:31:28.233Z,33.70
2018-06-24T14:34:53.576Z,33.34
2018-06-24T14:38:18.399Z,34.40
2018-06-24T14:41:43.114Z,33.13
2018-06-24T14:45:07.954Z,31.55
2018-06-24T14:48:32.649Z,30.51
2018-06-24T14:51:57.686Z,31.05
2018-06-24T14:55:22.557Z,30.17
2018-06-24T14:58:47.574Z,31.56
2018-06-24T15:02:12.547Z,30.51
2018-06-24T15:05:37.299Z,30.14
2018-06-24T15:09:02.014Z,28.85
2018-06-24T15:12:26.429Z,31.64
2018-06-24T15:15:50.887Z,28.98
2018-06-24T15:19:15.688Z,27.58
2018-06-24T15:22:40.627Z,29.83
2018-06-24T15:26:05.036Z,28.96
2018-06-24T15:29:29.897Z,28.89
2018-06-24T15:32:54.979Z,29.11
2018-06-24T15:36:19.563Z,28.40
2018-06-24T15:39:44.569Z,29.33
2018-06-24T15:43:09.596Z,31.40
2018-06-24T15:46:34.495Z,30.74
2018-06-24T15:49:59.313Z,31.01
2018-06-24T15:53:24.088Z,31.57
2018-06-24T15:56:48.449Z,31.21
2018-06-24T16:00:13.254Z,32.71
2018-06-24T16:03:38.016Z,32.94
2018-06-24T16:07:02.823Z,32.59
2018-06-24T16:10:27.664Z,32.14
2018-06-24T16:13:52.350Z,31.88
2018-06-24T16:17:17.083Z,31.68
2018-06-24T16:20:41.853Z,32.05
2018-06-24T16:24:06.776Z,31.92
2018-06-24T16:27:31.580Z,33.99
2018-06-24T16:30:56.309Z,34.49
2018-06-24T16:34:21.160Z,35.28
2018-06-24T16:37:46.878Z,35.77
2018-06-24T16:41:11.809Z,35.87
2018-06-24T16:44:36.683Z,36.09
2018-06-24T16:48:01.468Z,36.55
2018-06-24T16:51:25.792Z,38.76
2018-06-24T16:54:50.622Z,41.56
2018-06-24T16:58:15.427Z,43.50
2018-06-24T17:01:40.995Z,43.21
2018-06-24T17:05:05.768Z,44.41
2018-06-24T17:08:31.434Z,44.23
2018-06-24T17:11:56.437Z,44.37
2018-06-24T17:15:21.245Z,45.17
2018-06-24T17:18:46.543Z,44.91
2018-06-24T17:22:11.522Z,44.74
2018-06-24T17:25:37.246Z,43.71
2018-06-24T17:29:01.692Z,43.43
2018-06-24T17:32:26.502Z,43.53
2018-06-24T17:35:51.148Z,43.92
2018-06-24T17:39:17.282Z,43.82
2018-06-24T17:42:42.316Z,44.00
2018-06-24T17:46:07.283Z,42.72
2018-06-24T17:49:32.075Z,41.88
2018-06-24T17:52:56.890Z,41.24
2018-06-24T17:56:21.938Z,41.84
2018-06-24T17:59:47.673Z,41.92
2018-06-24T18:03:12.463Z,42.13
2018-06-24T18:06:37.330Z,42.22
2018-06-24T18:10:02.293Z,42.54
2018-06-24T18:13:27.063Z,43.05
2018-06-24T18:16:51.912Z,42.94
2018-06-24T18:20:16.796Z,42.45
2018-06-24T18:23:42.008Z,42.89
2018-06-24T18:27:06.981Z,41.48
2018-06-24T18:30:32.397Z,42.73
2018-06-24T18:33:57.438Z,43.18
2018-06-24T18:37:22.432Z,42.81
2018-06-24T18:40:47.792Z,43.34
2018-06-24T18:44:13.705Z,42.89
2018-06-24T18:47:39.527Z,42.92
2018-06-24T18:51:04.044Z,43.08
2018-06-24T18:54:29.061Z,42.74
2018-06-24T18:57:55.494Z,43.51
2018-06-24T19:01:20.325Z,43.78
2018-06-24T19:04:44.756Z,44.05
2018-06-24T19:08:09.635Z,44.98
2018-06-24T19:11:34.036Z,45.07
2018-06-24T19:14:59.038Z,45.64
2018-06-24T19:18:24.705Z,46.17
2018-06-24T19:21:49.797Z,46.57
2018-06-24T19:25:15.946Z,47.01
2018-06-24T19:28:40.870Z,47.59
2018-06-24T19:32:06.034Z,47.49
2018-06-24T19:35:30.928Z,48.17
2018-06-24T19:38:55.734Z,49.12
2018-06-24T19:42:21.165Z,48.58
2018-06-24T19:45:47.423Z,49.53
2018-06-24T19:49:13.249Z,49.83
2018-06-24T19:52:38.010Z,49.42
2018-06-24T19:56:03.349Z,49.93
2018-06-24T19:59:27.748Z,50.72
2018-06-24T20:02:53.846Z,51.04
2018-06-24T20:06:19.885Z,50.97
2018-06-24T20:09:44.895Z,50.98
2018-06-24T20:13:10.889Z,50.92
2018-06-24T20:16:35.930Z,50.33
2018-06-24T20:20:00.720Z,49.88
2018-06-24T20:23:25.699Z,49.85
2018-06-24T20:26:50.512Z,49.13
2018-06-24T20:30:15.346Z,48.98
2018-06-24T20:33:40.106Z,49.18
2018-06-24T20:37:04.986Z,49.40
2018-06-24T20:40:29.978Z,48.39
2018-06-24T20:43:54.844Z,48.47
2018-06-24T20:47:19.563Z,48.18
2018-06-24T20:50:44.300Z,48.14
2018-06-24T20:54:08.961Z,48.38
2018-06-24T20:57:33.729Z,49.22
2018-06-24T21:00:58.468Z,49.63
2018-06-24T21:04:25.282Z,49.10
2018-06-24T21:07:50.008Z,49.54
2018-06-24T21:11:14.950Z,49.07
2018-06-24T21:14:39.653Z,50.12
2018-06-24T21:18:04.297Z,49.26
2018-06-24T21:21:29.017Z,49.38
2018-06-24T21:24:53.680Z,49.42
2018-06-24T21:28:18.390Z,49.62
2018-06-24T21:31:43.060Z,49.30
2018-06-24T21:35:07.756Z,49.65
2018-06-24T21:38:32.130Z,49.51
2018-06-24T21:41:56.993Z,50.16
2018-06-24T21:45:21.651Z,49.30
2018-06-24T21:48:46.328Z,50.38
2018-06-24T21:52:10.993Z,50.83
2018-06-24T21:55:35.772Z,51.08
2018-06-24T21:59:00.438Z,50.26
2018-06-24T22:02:25.206Z,50.37
2018-06-24T22:06:03.017Z,49.31
2018-06-24T22:09:27.886Z,48.57
2018-06-24T22:12:52.544Z,48.63
2018-06-24T22:16:17.339Z,49.03
2018-06-24T22:19:41.994Z,49.80
2018-06-24T22:23:06.687Z,49.49
2018-06-24T22:26:32.376Z,48.93
2018-06-24T22:29:57.974Z,49.02
2018-06-24T22:33:22.642Z,48.40
2018-06-24T22:36:47.297Z,49.26
2018-06-24T22:40:11.956Z,49.46
2018-06-24T22:43:36.660Z,48.71
2018-06-24T22:47:01.331Z,48.97
2018-06-24T22:50:25.948Z,48.63
2018-06-24T22:53:50.702Z,49.05
2018-06-24T22:57:15.347Z,49.06
2018-06-24T23:00:40.324Z,49.36
2018-06-24T23:04:05.102Z,48.69
2018-06-24T23:07:29.757Z,48.46
2018-06-24T23:10:54.435Z,49.08
2018-06-24T23:14:19.082Z,48.46
2018-06-24T23:17:43.755Z,48.66
2018-06-24T23:21:08.373Z,49.50
2018-06-24T23:24:33.069Z,48.45
2018-06-24T23:27:57.724Z,48.87
2018-06-24T23:31:22.418Z,49.14
2018-06-24T23:34:47.128Z,49.09
2018-06-24T23:38:11.835Z,49.79
2018-06-24T23:41:36.628Z,49.02
2018-06-24T23:45:01.317Z,50.27
2018-06-24T23:48:26.032Z,48.92
2018-06-24T23:51:50.784Z,49.16
2018-06-24T23:55:15.434Z,49.54
2018-06-24T23:58:39.743Z,50.12
